sensor_id;sensor_type;location;lat;lon;timestamp;P1;durP1;ratioP1;P2;durP2;ratioP2
23586;SDS011;11971;51.148;4.104;2023-07-22T00:00:29;149.15;;;45.33;;
23586;SDS011;11971;51.148;4.104;2023-07-22T00:02:56;144.30;;;44.72;;
23586;SDS011;11971;51.148;4.104;2023-07-22T00:05:22;149.35;;;45.63;;
23586;SDS011;11971;51.148;4.104;2023-07-22T00:07:50;146.40;;;44.92;;
23586;SDS011;11971;51.148;4.104;2023-07-22T00:10:19;144.82;;;44.70;;
23586;SDS011;11971;51.148;4.104;2023-07-22T00:12:45;144.77;;;45.40;;
23586;SDS011;11971;51.148;4.104;2023-07-22T00:15:12;150.77;;;45.53;;
23586;SDS011;11971;51.148;4.104;2023-07-22T00:17:39;147.55;;;45.50;;
23586;SDS011;11971;51.148;4.104;2023-07-22T00:20:07;148.63;;;45.08;;
23586;SDS011;11971;51.148;4.104;2023-07-22T00:22:36;149.93;;;46.00;;
23586;SDS011;11971;51.148;4.104;2023-07-22T00:25:05;143.40;;;45.05;;
23586;SDS011;11971;51.148;4.104;2023-07-22T00:27:34;146.30;;;44.97;;
23586;SDS011;11971;51.148;4.104;2023-07-22T00:30:01;143.98;;;44.65;;
23586;SDS011;11971;51.148;4.104;2023-07-22T00:32:27;147.68;;;45.13;;
23586;SDS011;11971;51.148;4.104;2023-07-22T00:34:54;144.63;;;44.78;;
23586;SDS011;11971;51.148;4.104;2023-07-22T00:37:20;147.43;;;45.17;;
23586;SDS011;11971;51.148;4.104;2023-07-22T00:39:47;149.77;;;45.72;;
23586;SDS011;11971;51.148;4.104;2023-07-22T00:42:14;147.02;;;45.65;;
23586;SDS011;11971;51.148;4.104;2023-07-22T00:44:42;145.55;;;45.45;;
23586;SDS011;11971;51.148;4.104;2023-07-22T00:47:08;145.77;;;45.00;;
23586;SDS011;11971;51.148;4.104;2023-07-22T00:49:35;146.32;;;45.90;;
23586;SDS011;11971;51.148;4.104;2023-07-22T00:52:03;147.30;;;45.40;;
23586;SDS011;11971;51.148;4.104;2023-07-22T00:54:31;150.55;;;45.22;;
23586;SDS011;11971;51.148;4.104;2023-07-22T00:56:58;143.95;;;45.00;;
23586;SDS011;11971;51.148;4.104;2023-07-22T00:59:24;146.70;;;44.95;;
23586;SDS011;11971;51.148;4.104;2023-07-22T01:01:53;143.35;;;44.78;;
23586;SDS011;11971;51.148;4.104;2023-07-22T01:04:19;145.75;;;46.13;;
23586;SDS011;11971;51.148;4.104;2023-07-22T01:06:47;144.90;;;44.90;;
23586;SDS011;11971;51.148;4.104;2023-07-22T01:09:14;144.57;;;45.42;;
23586;SDS011;11971;51.148;4.104;2023-07-22T01:11:41;148.55;;;45.72;;
23586;SDS011;11971;51.148;4.104;2023-07-22T01:14:07;148.73;;;45.60;;
23586;SDS011;11971;51.148;4.104;2023-07-22T01:16:34;147.50;;;45.75;;
23586;SDS011;11971;51.148;4.104;2023-07-22T01:19:02;146.05;;;45.33;;
23586;SDS011;11971;51.148;4.104;2023-07-22T01:21:29;145.73;;;45.20;;
23586;SDS011;11971;51.148;4.104;2023-07-22T01:23:59;147.48;;;45.50;;
23586;SDS011;11971;51.148;4.104;2023-07-22T01:26:26;147.88;;;45.25;;
23586;SDS011;11971;51.148;4.104;2023-07-22T01:29:01;151.68;;;45.33;;
23586;SDS011;11971;51.148;4.104;2023-07-22T01:31:29;143.68;;;45.45;;
23586;SDS011;11971;51.148;4.104;2023-07-22T01:33:55;146.32;;;45.28;;
23586;SDS011;11971;51.148;4.104;2023-07-22T01:36:23;146.50;;;45.88;;
23586;SDS011;11971;51.148;4.104;2023-07-22T01:38:50;146.38;;;45.45;;
23586;SDS011;11971;51.148;4.104;2023-07-22T01:41:18;143.30;;;44.47;;
23586;SDS011;11971;51.148;4.104;2023-07-22T01:43:45;146.85;;;45.60;;
23586;SDS011;11971;51.148;4.104;2023-07-22T01:46:11;147.38;;;45.20;;
23586;SDS011;11971;51.148;4.104;2023-07-22T01:48:38;148.57;;;46.08;;
23586;SDS011;11971;51.148;4.104;2023-07-22T01:51:05;148.88;;;44.92;;
23586;SDS011;11971;51.148;4.104;2023-07-22T01:53:32;146.15;;;45.50;;
23586;SDS011;11971;51.148;4.104;2023-07-22T01:55:59;149.25;;;44.90;;
23586;SDS011;11971;51.148;4.104;2023-07-22T01:58:27;142.50;;;45.67;;
23586;SDS011;11971;51.148;4.104;2023-07-22T02:00:54;146.27;;;45.22;;
23586;SDS011;11971;51.148;4.104;2023-07-22T02:03:20;145.10;;;45.30;;
23586;SDS011;11971;51.148;4.104;2023-07-22T02:05:47;143.48;;;45.28;;
23586;SDS011;11971;51.148;4.104;2023-07-22T02:08:14;143.93;;;44.95;;
23586;SDS011;11971;51.148;4.104;2023-07-22T02:10:40;143.63;;;44.85;;
23586;SDS011;11971;51.148;4.104;2023-07-22T02:13:07;145.40;;;44.72;;
23586;SDS011;11971;51.148;4.104;2023-07-22T02:15:35;142.65;;;44.95;;
23586;SDS011;11971;51.148;4.104;2023-07-22T02:18:02;143.63;;;45.33;;
23586;SDS011;11971;51.148;4.104;2023-07-22T02:20:29;144.35;;;45.45;;
23586;SDS011;11971;51.148;4.104;2023-07-22T02:22:56;144.35;;;45.25;;
23586;SDS011;11971;51.148;4.104;2023-07-22T02:25:23;145.15;;;45.83;;
23586;SDS011;11971;51.148;4.104;2023-07-22T02:27:49;146.30;;;45.92;;
23586;SDS011;11971;51.148;4.104;2023-07-22T02:30:16;152.82;;;45.85;;
23586;SDS011;11971;51.148;4.104;2023-07-22T02:32:44;155.52;;;47.95;;
23586;SDS011;11971;51.148;4.104;2023-07-22T02:35:11;144.60;;;45.72;;
23586;SDS011;11971;51.148;4.104;2023-07-22T02:37:38;152.75;;;45.83;;
23586;SDS011;11971;51.148;4.104;2023-07-22T02:40:05;144.02;;;45.75;;
23586;SDS011;11971;51.148;4.104;2023-07-22T02:42:33;143.50;;;45.22;;
23586;SDS011;11971;51.148;4.104;2023-07-22T02:45:00;144.52;;;45.50;;
23586;SDS011;11971;51.148;4.104;2023-07-22T02:47:27;143.00;;;45.17;;
23586;SDS011;11971;51.148;4.104;2023-07-22T02:49:56;146.98;;;45.05;;
23586;SDS011;11971;51.148;4.104;2023-07-22T02:52:22;144.80;;;46.13;;
23586;SDS011;11971;51.148;4.104;2023-07-22T02:55:03;144.13;;;45.28;;
23586;SDS011;11971;51.148;4.104;2023-07-22T02:57:31;145.05;;;44.72;;
23586;SDS011;11971;51.148;4.104;2023-07-22T02:59:58;143.60;;;45.17;;
23586;SDS011;11971;51.148;4.104;2023-07-22T03:02:24;147.60;;;45.58;;
23586;SDS011;11971;51.148;4.104;2023-07-22T03:04:51;146.35;;;46.00;;
23586;SDS011;11971;51.148;4.104;2023-07-22T03:07:19;141.65;;;44.90;;
23586;SDS011;11971;51.148;4.104;2023-07-22T03:09:46;146.95;;;45.30;;
23586;SDS011;11971;51.148;4.104;2023-07-22T03:12:12;142.63;;;45.45;;
23586;SDS011;11971;51.148;4.104;2023-07-22T03:14:39;145.05;;;45.80;;
23586;SDS011;11971;51.148;4.104;2023-07-22T03:17:06;151.82;;;47.00;;
23586;SDS011;11971;51.148;4.104;2023-07-22T03:19:33;148.90;;;46.05;;
23586;SDS011;11971;51.148;4.104;2023-07-22T03:21:59;145.63;;;46.33;;
23586;SDS011;11971;51.148;4.104;2023-07-22T03:24:28;144.02;;;46.08;;
23586;SDS011;11971;51.148;4.104;2023-07-22T03:26:54;146.25;;;46.00;;
23586;SDS011;11971;51.148;4.104;2023-07-22T03:29:21;144.93;;;45.75;;
23586;SDS011;11971;51.148;4.104;2023-07-22T03:31:49;144.23;;;46.10;;
23586;SDS011;11971;51.148;4.104;2023-07-22T03:34:16;146.25;;;46.20;;
23586;SDS011;11971;51.148;4.104;2023-07-22T03:36:42;142.98;;;45.85;;
23586;SDS011;11971;51.148;4.104;2023-07-22T03:39:09;145.23;;;45.95;;
23586;SDS011;11971;51.148;4.104;2023-07-22T03:41:37;143.00;;;46.30;;
23586;SDS011;11971;51.148;4.104;2023-07-22T03:44:03;144.02;;;46.30;;
23586;SDS011;11971;51.148;4.104;2023-07-22T03:46:30;145.30;;;45.13;;
23586;SDS011;11971;51.148;4.104;2023-07-22T03:48:56;145.80;;;45.67;;
23586;SDS011;11971;51.148;4.104;2023-07-22T03:51:23;145.73;;;46.33;;
23586;SDS011;11971;51.148;4.104;2023-07-22T03:53:50;149.02;;;46.58;;
23586;SDS011;11971;51.148;4.104;2023-07-22T03:56:16;144.20;;;45.92;;
23586;SDS011;11971;51.148;4.104;2023-07-22T03:58:44;143.32;;;45.35;;
23586;SDS011;11971;51.148;4.104;2023-07-22T04:01:11;145.98;;;46.15;;
23586;SDS011;11971;51.148;4.104;2023-07-22T04:03:38;148.48;;;46.40;;
23586;SDS011;11971;51.148;4.104;2023-07-22T04:06:05;142.95;;;45.45;;
23586;SDS011;11971;51.148;4.104;2023-07-22T04:08:31;146.52;;;46.30;;
23586;SDS011;11971;51.148;4.104;2023-07-22T04:10:58;140.35;;;45.78;;
23586;SDS011;11971;51.148;4.104;2023-07-22T04:13:25;146.02;;;46.28;;
23586;SDS011;11971;51.148;4.104;2023-07-22T04:15:54;144.40;;;46.45;;
23586;SDS011;11971;51.148;4.104;2023-07-22T04:18:21;145.00;;;45.90;;
23586;SDS011;11971;51.148;4.104;2023-07-22T04:20:47;141.48;;;45.47;;
23586;SDS011;11971;51.148;4.104;2023-07-22T04:23:14;145.93;;;45.72;;
23586;SDS011;11971;51.148;4.104;2023-07-22T04:25:41;143.68;;;45.03;;
23586;SDS011;11971;51.148;4.104;2023-07-22T04:28:08;144.95;;;46.28;;
23586;SDS011;11971;51.148;4.104;2023-07-22T04:30:35;141.70;;;45.47;;
23586;SDS011;11971;51.148;4.104;2023-07-22T04:33:03;141.68;;;45.60;;
23586;SDS011;11971;51.148;4.104;2023-07-22T04:35:31;143.23;;;45.05;;
23586;SDS011;11971;51.148;4.104;2023-07-22T04:37:57;140.50;;;45.03;;
23586;SDS011;11971;51.148;4.104;2023-07-22T04:40:28;139.15;;;45.17;;
23586;SDS011;11971;51.148;4.104;2023-07-22T04:42:55;138.07;;;44.80;;
23586;SDS011;11971;51.148;4.104;2023-07-22T04:45:22;140.95;;;45.95;;
23586;SDS011;11971;51.148;4.104;2023-07-22T04:47:49;149.02;;;45.60;;
23586;SDS011;11971;51.148;4.104;2023-07-22T04:50:20;144.88;;;45.03;;
23586;SDS011;11971;51.148;4.104;2023-07-22T04:52:47;144.57;;;46.00;;
23586;SDS011;11971;51.148;4.104;2023-07-22T04:55:14;143.95;;;45.75;;
23586;SDS011;11971;51.148;4.104;2023-07-22T04:57:41;141.23;;;45.75;;
23586;SDS011;11971;51.148;4.104;2023-07-22T05:00:10;137.43;;;45.25;;
23586;SDS011;11971;51.148;4.104;2023-07-22T05:02:39;143.77;;;46.00;;
23586;SDS011;11971;51.148;4.104;2023-07-22T05:05:09;141.18;;;45.58;;
23586;SDS011;11971;51.148;4.104;2023-07-22T05:07:37;140.80;;;44.63;;
23586;SDS011;11971;51.148;4.104;2023-07-22T05:10:04;143.75;;;45.65;;
23586;SDS011;11971;51.148;4.104;2023-07-22T05:12:32;142.02;;;45.30;;
23586;SDS011;11971;51.148;4.104;2023-07-22T05:14:58;145.77;;;45.47;;
23586;SDS011;11971;51.148;4.104;2023-07-22T05:17:25;141.45;;;44.88;;
23586;SDS011;11971;51.148;4.104;2023-07-22T05:19:54;138.27;;;44.83;;
23586;SDS011;11971;51.148;4.104;2023-07-22T05:22:21;143.02;;;45.33;;
23586;SDS011;11971;51.148;4.104;2023-07-22T05:24:49;139.52;;;44.95;;
23586;SDS011;11971;51.148;4.104;2023-07-22T05:27:15;143.98;;;45.42;;
23586;SDS011;11971;51.148;4.104;2023-07-22T05:29:42;143.43;;;45.10;;
23586;SDS011;11971;51.148;4.104;2023-07-22T05:32:10;144.82;;;45.83;;
23586;SDS011;11971;51.148;4.104;2023-07-22T05:34:37;137.65;;;44.85;;
23586;SDS011;11971;51.148;4.104;2023-07-22T05:37:03;140.32;;;45.10;;
23586;SDS011;11971;51.148;4.104;2023-07-22T05:39:30;140.15;;;45.47;;
23586;SDS011;11971;51.148;4.104;2023-07-22T05:41:59;139.43;;;44.55;;
23586;SDS011;11971;51.148;4.104;2023-07-22T05:44:25;140.57;;;45.20;;
23586;SDS011;11971;51.148;4.104;2023-07-22T05:46:52;141.15;;;46.17;;
23586;SDS011;11971;51.148;4.104;2023-07-22T05:49:18;144.45;;;45.30;;
23586;SDS011;11971;51.148;4.104;2023-07-22T05:51:45;141.85;;;44.53;;
23586;SDS011;11971;51.148;4.104;2023-07-22T05:54:12;140.55;;;45.50;;
23586;SDS011;11971;51.148;4.104;2023-07-22T05:56:38;145.60;;;45.45;;
23586;SDS011;11971;51.148;4.104;2023-07-22T05:59:07;140.77;;;45.30;;
23586;SDS011;11971;51.148;4.104;2023-07-22T06:01:34;146.13;;;45.30;;
23586;SDS011;11971;51.148;4.104;2023-07-22T06:04:01;144.68;;;45.30;;
23586;SDS011;11971;51.148;4.104;2023-07-22T06:06:28;139.57;;;44.90;;
23586;SDS011;11971;51.148;4.104;2023-07-22T06:08:55;146.80;;;45.67;;
23586;SDS011;11971;51.148;4.104;2023-07-22T06:11:22;143.13;;;45.35;;
23586;SDS011;11971;51.148;4.104;2023-07-22T06:13:48;139.50;;;44.47;;
23586;SDS011;11971;51.148;4.104;2023-07-22T06:16:17;140.43;;;45.00;;
23586;SDS011;11971;51.148;4.104;2023-07-22T06:18:43;144.03;;;45.23;;
23586;SDS011;11971;51.148;4.104;2023-07-22T06:21:10;142.73;;;45.38;;
23586;SDS011;11971;51.148;4.104;2023-07-22T06:23:37;143.80;;;45.15;;
23586;SDS011;11971;51.148;4.104;2023-07-22T06:26:03;144.20;;;45.05;;
23586;SDS011;11971;51.148;4.104;2023-07-22T06:28:30;138.45;;;44.17;;
23586;SDS011;11971;51.148;4.104;2023-07-22T06:30:57;142.73;;;44.63;;
23586;SDS011;11971;51.148;4.104;2023-07-22T06:33:25;148.55;;;45.47;;
23586;SDS011;11971;51.148;4.104;2023-07-22T06:35:51;142.63;;;45.05;;
23586;SDS011;11971;51.148;4.104;2023-07-22T06:38:18;139.48;;;44.92;;
23586;SDS011;11971;51.148;4.104;2023-07-22T06:40:45;141.77;;;44.53;;
23586;SDS011;11971;51.148;4.104;2023-07-22T06:43:11;141.23;;;44.55;;
23586;SDS011;11971;51.148;4.104;2023-07-22T06:45:38;142.15;;;44.63;;
23586;SDS011;11971;51.148;4.104;2023-07-22T06:48:05;138.40;;;44.65;;
23586;SDS011;11971;51.148;4.104;2023-07-22T06:50:33;140.75;;;44.65;;
23586;SDS011;11971;51.148;4.104;2023-07-22T06:52:59;139.32;;;44.80;;
23586;SDS011;11971;51.148;4.104;2023-07-22T06:55:26;143.38;;;44.65;;
23586;SDS011;11971;51.148;4.104;2023-07-22T06:57:55;145.20;;;44.63;;
23586;SDS011;11971;51.148;4.104;2023-07-22T07:00:22;138.18;;;45.08;;
23586;SDS011;11971;51.148;4.104;2023-07-22T07:02:49;140.27;;;44.25;;
23586;SDS011;11971;51.148;4.104;2023-07-22T07:05:16;141.85;;;44.58;;
23586;SDS011;11971;51.148;4.104;2023-07-22T07:07:44;139.20;;;44.67;;
23586;SDS011;11971;51.148;4.104;2023-07-22T07:10:11;139.13;;;44.50;;
23586;SDS011;11971;51.148;4.104;2023-07-22T07:12:37;136.50;;;43.80;;
23586;SDS011;11971;51.148;4.104;2023-07-22T07:15:04;138.52;;;43.67;;
23586;SDS011;11971;51.148;4.104;2023-07-22T07:17:32;138.27;;;43.17;;
23586;SDS011;11971;51.148;4.104;2023-07-22T07:19:59;140.93;;;43.97;;
23586;SDS011;11971;51.148;4.104;2023-07-22T07:22:26;137.82;;;43.50;;
23586;SDS011;11971;51.148;4.104;2023-07-22T07:24:54;140.02;;;44.15;;
23586;SDS011;11971;51.148;4.104;2023-07-22T07:27:20;139.15;;;43.42;;
23586;SDS011;11971;51.148;4.104;2023-07-22T07:29:47;139.82;;;43.45;;
23586;SDS011;11971;51.148;4.104;2023-07-22T07:32:14;138.57;;;43.50;;
23586;SDS011;11971;51.148;4.104;2023-07-22T07:34:41;141.40;;;43.67;;
23586;SDS011;11971;51.148;4.104;2023-07-22T07:37:07;139.43;;;43.70;;
23586;SDS011;11971;51.148;4.104;2023-07-22T07:39:34;141.60;;;43.38;;
23586;SDS011;11971;51.148;4.104;2023-07-22T07:42:02;138.30;;;43.22;;
23586;SDS011;11971;51.148;4.104;2023-07-22T07:44:29;136.80;;;43.33;;
23586;SDS011;11971;51.148;4.104;2023-07-22T07:46:55;142.00;;;43.42;;
23586;SDS011;11971;51.148;4.104;2023-07-22T07:49:22;141.23;;;43.03;;
23586;SDS011;11971;51.148;4.104;2023-07-22T07:51:48;143.10;;;43.38;;
23586;SDS011;11971;51.148;4.104;2023-07-22T07:54:15;139.00;;;44.00;;
23586;SDS011;11971;51.148;4.104;2023-07-22T07:56:42;142.18;;;43.65;;
23586;SDS011;11971;51.148;4.104;2023-07-22T07:59:10;141.90;;;43.55;;
23586;SDS011;11971;51.148;4.104;2023-07-22T08:01:36;139.55;;;43.75;;
23586;SDS011;11971;51.148;4.104;2023-07-22T08:04:06;138.32;;;43.60;;
23586;SDS011;11971;51.148;4.104;2023-07-22T08:06:33;140.27;;;42.97;;
23586;SDS011;11971;51.148;4.104;2023-07-22T08:09:01;135.07;;;42.92;;
23586;SDS011;11971;51.148;4.104;2023-07-22T08:11:28;136.45;;;43.00;;
23586;SDS011;11971;51.148;4.104;2023-07-22T08:13:55;139.52;;;43.15;;
23586;SDS011;11971;51.148;4.104;2023-07-22T08:16:23;138.00;;;43.25;;
23586;SDS011;11971;51.148;4.104;2023-07-22T08:18:50;137.52;;;42.95;;
23586;SDS011;11971;51.148;4.104;2023-07-22T08:21:16;139.38;;;43.08;;
23586;SDS011;11971;51.148;4.104;2023-07-22T08:23:43;138.50;;;43.08;;
23586;SDS011;11971;51.148;4.104;2023-07-22T08:26:11;140.65;;;43.50;;
23586;SDS011;11971;51.148;4.104;2023-07-22T08:28:38;137.60;;;42.80;;
23586;SDS011;11971;51.148;4.104;2023-07-22T08:31:05;138.38;;;43.42;;
23586;SDS011;11971;51.148;4.104;2023-07-22T08:33:33;134.55;;;42.88;;
23586;SDS011;11971;51.148;4.104;2023-07-22T08:36:00;138.32;;;42.60;;
23586;SDS011;11971;51.148;4.104;2023-07-22T08:38:27;137.45;;;43.50;;
23586;SDS011;11971;51.148;4.104;2023-07-22T08:40:54;136.57;;;42.90;;
23586;SDS011;11971;51.148;4.104;2023-07-22T08:43:21;136.68;;;42.92;;
23586;SDS011;11971;51.148;4.104;2023-07-22T08:45:48;140.40;;;43.78;;
23586;SDS011;11971;51.148;4.104;2023-07-22T08:50:46;137.02;;;42.72;;
23586;SDS011;11971;51.148;4.104;2023-07-22T08:53:15;139.15;;;42.58;;
23586;SDS011;11971;51.148;4.104;2023-07-22T08:55:42;135.43;;;42.95;;
23586;SDS011;11971;51.148;4.104;2023-07-22T08:58:10;139.05;;;43.00;;
23586;SDS011;11971;51.148;4.104;2023-07-22T09:00:37;136.82;;;42.70;;
23586;SDS011;11971;51.148;4.104;2023-07-22T09:03:05;135.73;;;42.95;;
23586;SDS011;11971;51.148;4.104;2023-07-22T09:05:32;140.30;;;42.42;;
23586;SDS011;11971;51.148;4.104;2023-07-22T09:08:02;140.40;;;43.17;;
23586;SDS011;11971;51.148;4.104;2023-07-22T09:10:29;136.40;;;42.47;;
23586;SDS011;11971;51.148;4.104;2023-07-22T09:12:56;135.68;;;42.35;;
23586;SDS011;11971;51.148;4.104;2023-07-22T09:15:23;134.95;;;42.17;;
23586;SDS011;11971;51.148;4.104;2023-07-22T09:17:50;138.93;;;42.72;;
23586;SDS011;11971;51.148;4.104;2023-07-22T09:20:17;134.70;;;42.30;;
23586;SDS011;11971;51.148;4.104;2023-07-22T09:22:46;131.70;;;42.07;;
23586;SDS011;11971;51.148;4.104;2023-07-22T09:25:15;135.35;;;42.63;;
23586;SDS011;11971;51.148;4.104;2023-07-22T09:27:43;137.25;;;42.97;;
23586;SDS011;11971;51.148;4.104;2023-07-22T09:30:20;137.35;;;42.30;;
23586;SDS011;11971;51.148;4.104;2023-07-22T09:32:46;134.23;;;42.60;;
23586;SDS011;11971;51.148;4.104;2023-07-22T09:35:13;135.43;;;42.88;;
23586;SDS011;11971;51.148;4.104;2023-07-22T09:37:40;135.02;;;42.47;;
23586;SDS011;11971;51.148;4.104;2023-07-22T09:42:51;138.70;;;42.38;;
23586;SDS011;11971;51.148;4.104;2023-07-22T09:45:18;134.75;;;42.63;;
23586;SDS011;11971;51.148;4.104;2023-07-22T09:47:46;134.60;;;42.42;;
23586;SDS011;11971;51.148;4.104;2023-07-22T09:50:15;133.57;;;42.50;;
23586;SDS011;11971;51.148;4.104;2023-07-22T09:52:44;135.65;;;42.00;;
23586;SDS011;11971;51.148;4.104;2023-07-22T09:55:12;134.23;;;42.13;;
23586;SDS011;11971;51.148;4.104;2023-07-22T09:57:43;133.90;;;42.10;;
23586;SDS011;11971;51.148;4.104;2023-07-22T10:00:11;137.25;;;42.08;;
23586;SDS011;11971;51.148;4.104;2023-07-22T10:02:39;132.38;;;42.08;;
23586;SDS011;11971;51.148;4.104;2023-07-22T10:05:07;132.82;;;42.20;;
23586;SDS011;11971;51.148;4.104;2023-07-22T10:07:35;133.15;;;41.65;;
23586;SDS011;11971;51.148;4.104;2023-07-22T10:10:03;133.23;;;41.93;;
23586;SDS011;11971;51.148;4.104;2023-07-22T10:12:30;136.80;;;42.13;;
23586;SDS011;11971;51.148;4.104;2023-07-22T10:14:59;135.32;;;42.28;;
23586;SDS011;11971;51.148;4.104;2023-07-22T10:17:26;133.43;;;41.95;;
23586;SDS011;11971;51.148;4.104;2023-07-22T10:19:54;133.65;;;42.28;;
23586;SDS011;11971;51.148;4.104;2023-07-22T10:22:21;135.68;;;42.40;;
23586;SDS011;11971;51.148;4.104;2023-07-22T10:24:48;134.15;;;41.95;;
23586;SDS011;11971;51.148;4.104;2023-07-22T10:27:15;134.82;;;42.17;;
23586;SDS011;11971;51.148;4.104;2023-07-22T10:29:43;132.15;;;42.10;;
23586;SDS011;11971;51.148;4.104;2023-07-22T10:32:13;137.98;;;42.15;;
23586;SDS011;11971;51.148;4.104;2023-07-22T10:34:41;133.15;;;42.00;;
23586;SDS011;11971;51.148;4.104;2023-07-22T10:37:08;136.32;;;42.50;;
23586;SDS011;11971;51.148;4.104;2023-07-22T10:39:35;134.47;;;42.47;;
23586;SDS011;11971;51.148;4.104;2023-07-22T10:42:02;137.23;;;42.72;;
23586;SDS011;11971;51.148;4.104;2023-07-22T10:44:30;138.05;;;43.17;;
23586;SDS011;11971;51.148;4.104;2023-07-22T10:46:58;134.05;;;42.17;;
23586;SDS011;11971;51.148;4.104;2023-07-22T10:49:28;133.43;;;42.08;;
23586;SDS011;11971;51.148;4.104;2023-07-22T10:52:10;135.07;;;42.35;;
23586;SDS011;11971;51.148;4.104;2023-07-22T10:54:37;133.73;;;41.70;;
23586;SDS011;11971;51.148;4.104;2023-07-22T10:57:04;132.57;;;41.67;;
23586;SDS011;11971;51.148;4.104;2023-07-22T10:59:49;132.02;;;41.65;;
23586;SDS011;11971;51.148;4.104;2023-07-22T11:02:22;133.80;;;42.00;;
23586;SDS011;11971;51.148;4.104;2023-07-22T11:04:51;133.25;;;41.40;;
23586;SDS011;11971;51.148;4.104;2023-07-22T11:07:29;134.60;;;41.60;;
23586;SDS011;11971;51.148;4.104;2023-07-22T11:09:56;133.40;;;42.08;;
23586;SDS011;11971;51.148;4.104;2023-07-22T11:12:24;134.98;;;42.30;;
23586;SDS011;11971;51.148;4.104;2023-07-22T11:14:52;135.27;;;42.13;;
23586;SDS011;11971;51.148;4.104;2023-07-22T11:17:27;134.30;;;42.08;;
23586;SDS011;11971;51.148;4.104;2023-07-22T11:19:56;133.15;;;42.08;;
23586;SDS011;11971;51.148;4.104;2023-07-22T11:22:23;130.93;;;41.70;;
23586;SDS011;11971;51.148;4.104;2023-07-22T11:24:49;132.95;;;42.08;;
23586;SDS011;11971;51.148;4.104;2023-07-22T11:27:16;132.80;;;42.08;;
23586;SDS011;11971;51.148;4.104;2023-07-22T11:29:42;134.35;;;42.03;;
23586;SDS011;11971;51.148;4.104;2023-07-22T11:32:14;134.23;;;42.30;;
23586;SDS011;11971;51.148;4.104;2023-07-22T11:34:41;133.05;;;41.95;;
23586;SDS011;11971;51.148;4.104;2023-07-22T11:37:11;135.65;;;42.00;;
23586;SDS011;11971;51.148;4.104;2023-07-22T11:39:38;135.45;;;42.63;;
23586;SDS011;11971;51.148;4.104;2023-07-22T11:42:07;136.10;;;42.45;;
23586;SDS011;11971;51.148;4.104;2023-07-22T11:44:33;136.68;;;42.88;;
23586;SDS011;11971;51.148;4.104;2023-07-22T11:47:01;134.05;;;42.63;;
23586;SDS011;11971;51.148;4.104;2023-07-22T11:49:29;133.30;;;42.22;;
23586;SDS011;11971;51.148;4.104;2023-07-22T11:51:57;135.05;;;42.28;;
23586;SDS011;11971;51.148;4.104;2023-07-22T11:54:26;134.30;;;42.85;;
23586;SDS011;11971;51.148;4.104;2023-07-22T11:56:53;136.30;;;42.28;;
23586;SDS011;11971;51.148;4.104;2023-07-22T11:59:32;136.02;;;42.60;;
23586;SDS011;11971;51.148;4.104;2023-07-22T12:02:00;134.43;;;42.55;;
23586;SDS011;11971;51.148;4.104;2023-07-22T12:04:28;135.10;;;42.30;;
23586;SDS011;11971;51.148;4.104;2023-07-22T12:06:55;134.38;;;42.53;;
23586;SDS011;11971;51.148;4.104;2023-07-22T12:09:22;139.25;;;42.78;;
23586;SDS011;11971;51.148;4.104;2023-07-22T12:11:55;135.85;;;42.47;;
23586;SDS011;11971;51.148;4.104;2023-07-22T12:14:23;133.20;;;42.25;;
23586;SDS011;11971;51.148;4.104;2023-07-22T12:16:52;136.43;;;42.55;;
23586;SDS011;11971;51.148;4.104;2023-07-22T12:19:22;133.63;;;42.38;;
23586;SDS011;11971;51.148;4.104;2023-07-22T12:21:49;136.43;;;42.20;;
23586;SDS011;11971;51.148;4.104;2023-07-22T12:24:15;134.85;;;42.63;;
23586;SDS011;11971;51.148;4.104;2023-07-22T12:26:42;133.07;;;42.40;;
23586;SDS011;11971;51.148;4.104;2023-07-22T12:29:10;132.07;;;41.97;;
23586;SDS011;11971;51.148;4.104;2023-07-22T12:31:37;132.13;;;41.92;;
23586;SDS011;11971;51.148;4.104;2023-07-22T12:34:04;133.00;;;41.78;;
23586;SDS011;11971;51.148;4.104;2023-07-22T12:36:30;131.23;;;41.47;;
23586;SDS011;11971;51.148;4.104;2023-07-22T12:38:57;132.57;;;41.38;;
23586;SDS011;11971;51.148;4.104;2023-07-22T12:41:24;131.20;;;41.15;;
23586;SDS011;11971;51.148;4.104;2023-07-22T12:43:51;133.25;;;41.35;;
23586;SDS011;11971;51.148;4.104;2023-07-22T12:46:19;132.93;;;41.35;;
23586;SDS011;11971;51.148;4.104;2023-07-22T12:48:46;131.40;;;41.53;;
23586;SDS011;11971;51.148;4.104;2023-07-22T12:51:12;130.85;;;41.47;;
23586;SDS011;11971;51.148;4.104;2023-07-22T12:53:39;131.75;;;41.55;;
23586;SDS011;11971;51.148;4.104;2023-07-22T12:56:05;130.60;;;41.00;;
23586;SDS011;11971;51.148;4.104;2023-07-22T12:58:32;135.55;;;41.75;;
23586;SDS011;11971;51.148;4.104;2023-07-22T13:00:59;131.82;;;41.42;;
23586;SDS011;11971;51.148;4.104;2023-07-22T13:03:27;129.80;;;40.88;;
23586;SDS011;11971;51.148;4.104;2023-07-22T13:05:53;133.65;;;41.00;;
23586;SDS011;11971;51.148;4.104;2023-07-22T13:08:20;131.55;;;41.58;;
23586;SDS011;11971;51.148;4.104;2023-07-22T13:10:47;133.07;;;41.85;;
23586;SDS011;11971;51.148;4.104;2023-07-22T13:13:13;130.90;;;41.65;;
23586;SDS011;11971;51.148;4.104;2023-07-22T13:15:40;134.80;;;41.80;;
23586;SDS011;11971;51.148;4.104;2023-07-22T13:18:06;131.00;;;41.45;;
23586;SDS011;11971;51.148;4.104;2023-07-22T13:20:34;136.05;;;41.92;;
23586;SDS011;11971;51.148;4.104;2023-07-22T13:23:01;131.57;;;41.55;;
23586;SDS011;11971;51.148;4.104;2023-07-22T13:25:28;133.48;;;42.10;;
23586;SDS011;11971;51.148;4.104;2023-07-22T13:27:55;135.68;;;42.30;;
23586;SDS011;11971;51.148;4.104;2023-07-22T13:30:22;133.82;;;43.30;;
23586;SDS011;11971;51.148;4.104;2023-07-22T13:32:49;133.15;;;41.75;;
23586;SDS011;11971;51.148;4.104;2023-07-22T13:35:15;133.13;;;42.22;;
23586;SDS011;11971;51.148;4.104;2023-07-22T13:37:43;134.20;;;42.10;;
23586;SDS011;11971;51.148;4.104;2023-07-22T13:40:10;133.48;;;42.50;;
23586;SDS011;11971;51.148;4.104;2023-07-22T13:42:37;132.02;;;42.05;;
23586;SDS011;11971;51.148;4.104;2023-07-22T13:45:04;131.85;;;42.03;;
23586;SDS011;11971;51.148;4.104;2023-07-22T13:47:32;134.52;;;42.72;;
23586;SDS011;11971;51.148;4.104;2023-07-22T13:49:59;136.07;;;42.70;;
23586;SDS011;11971;51.148;4.104;2023-07-22T13:52:25;134.07;;;42.10;;
23586;SDS011;11971;51.148;4.104;2023-07-22T13:54:53;138.90;;;42.65;;
23586;SDS011;11971;51.148;4.104;2023-07-22T13:57:20;131.50;;;41.70;;
23586;SDS011;11971;51.148;4.104;2023-07-22T13:59:47;134.07;;;41.67;;
23586;SDS011;11971;51.148;4.104;2023-07-22T14:02:13;133.32;;;41.85;;
23586;SDS011;11971;51.148;4.104;2023-07-22T14:04:40;130.73;;;41.35;;
23586;SDS011;11971;51.148;4.104;2023-07-22T14:07:07;131.00;;;41.08;;
23586;SDS011;11971;51.148;4.104;2023-07-22T14:09:33;130.80;;;41.42;;
23586;SDS011;11971;51.148;4.104;2023-07-22T14:12:02;130.25;;;41.10;;
23586;SDS011;11971;51.148;4.104;2023-07-22T14:14:29;130.55;;;41.28;;